Arapua, Brazil
Current Conditions -  °F | °C
As of 1:00 PM on Thursday 27 Nov 2014 (Local Time) from SBDN Reporting Station
Thunderstorm Thunderstorm  
Wind Chill: 72°   Ceiling: 1400
Heat Index: 72°   Visibility: 0.31mi
Dew Point: 70°   Wind: 14mph
Humidity: 94%   Direction: 50°NE
Pressure: 29.91"   Gusts: NA
Location:  20.8°S, 52.05°W
Report Text: SBDN 271600Z 05012KT 0500 +TSRA BKN014 BKN030 FEW035CB 22/21 Q1013
Loading
Personal Weather Stations






























Interactive Weather Map New forecast layout! Learn more

10-Day Weather Forecast

Advertisements
Track Severe Weather on mobile